sensor_id;sensor_type;location;lat;lon;timestamp;P1;durP1;ratioP1;P2;durP2;ratioP2
15130;SDS011;7666;50.920;4.628;2023-07-16T00:02:28;9.30;;;2.93;;
15130;SDS011;7666;50.920;4.628;2023-07-16T00:05:14;9.93;;;2.30;;
15130;SDS011;7666;50.920;4.628;2023-07-16T00:08:01;8.43;;;2.77;;
15130;SDS011;7666;50.920;4.628;2023-07-16T00:10:47;10.13;;;2.57;;
15130;SDS011;7666;50.920;4.628;2023-07-16T00:13:34;9.53;;;2.17;;
15130;SDS011;7666;50.920;4.628;2023-07-16T00:16:21;11.93;;;2.70;;
15130;SDS011;7666;50.920;4.628;2023-07-16T00:19:09;11.50;;;3.17;;
15130;SDS011;7666;50.920;4.628;2023-07-16T00:21:55;9.73;;;2.60;;
15130;SDS011;7666;50.920;4.628;2023-07-16T00:24:42;9.57;;;2.70;;
15130;SDS011;7666;50.920;4.628;2023-07-16T00:27:28;12.43;;;2.73;;
15130;SDS011;7666;50.920;4.628;2023-07-16T00:30:15;11.17;;;2.67;;
15130;SDS011;7666;50.920;4.628;2023-07-16T00:33:01;6.67;;;2.20;;
15130;SDS011;7666;50.920;4.628;2023-07-16T00:35:48;6.93;;;2.20;;
15130;SDS011;7666;50.920;4.628;2023-07-16T00:38:35;10.77;;;2.50;;
15130;SDS011;7666;50.920;4.628;2023-07-16T00:41:21;7.47;;;2.40;;
15130;SDS011;7666;50.920;4.628;2023-07-16T00:44:07;7.43;;;2.23;;
15130;SDS011;7666;50.920;4.628;2023-07-16T00:46:54;8.67;;;2.23;;
15130;SDS011;7666;50.920;4.628;2023-07-16T00:49:40;5.63;;;2.13;;
15130;SDS011;7666;50.920;4.628;2023-07-16T00:52:27;9.10;;;2.70;;
15130;SDS011;7666;50.920;4.628;2023-07-16T00:55:13;10.53;;;2.33;;
15130;SDS011;7666;50.920;4.628;2023-07-16T00:58:01;10.17;;;2.57;;
15130;SDS011;7666;50.920;4.628;2023-07-16T01:00:50;14.40;;;2.97;;
15130;SDS011;7666;50.920;4.628;2023-07-16T01:03:37;10.93;;;2.73;;
15130;SDS011;7666;50.920;4.628;2023-07-16T01:09:17;10.23;;;2.27;;
15130;SDS011;7666;50.920;4.628;2023-07-16T01:12:04;13.83;;;3.13;;
15130;SDS011;7666;50.920;4.628;2023-07-16T01:14:51;12.70;;;2.90;;
15130;SDS011;7666;50.920;4.628;2023-07-16T01:17:37;8.83;;;2.30;;
15130;SDS011;7666;50.920;4.628;2023-07-16T01:20:25;11.87;;;2.63;;
15130;SDS011;7666;50.920;4.628;2023-07-16T01:26:20;13.23;;;3.27;;
15130;SDS011;7666;50.920;4.628;2023-07-16T01:31:59;8.97;;;2.90;;
15130;SDS011;7666;50.920;4.628;2023-07-16T01:34:46;13.23;;;2.90;;
15130;SDS011;7666;50.920;4.628;2023-07-16T01:37:33;10.30;;;2.83;;
15130;SDS011;7666;50.920;4.628;2023-07-16T01:40:19;10.63;;;3.50;;
15130;SDS011;7666;50.920;4.628;2023-07-16T01:43:06;7.77;;;2.73;;
15130;SDS011;7666;50.920;4.628;2023-07-16T01:45:52;10.13;;;3.40;;
15130;SDS011;7666;50.920;4.628;2023-07-16T01:48:39;11.33;;;3.10;;
15130;SDS011;7666;50.920;4.628;2023-07-16T01:51:25;9.17;;;3.43;;
15130;SDS011;7666;50.920;4.628;2023-07-16T01:54:11;14.50;;;3.50;;
15130;SDS011;7666;50.920;4.628;2023-07-16T01:56:58;8.50;;;3.23;;
15130;SDS011;7666;50.920;4.628;2023-07-16T01:59:44;12.03;;;3.57;;
15130;SDS011;7666;50.920;4.628;2023-07-16T02:02:31;8.70;;;3.33;;
15130;SDS011;7666;50.920;4.628;2023-07-16T02:05:18;13.40;;;3.43;;
15130;SDS011;7666;50.920;4.628;2023-07-16T02:08:04;11.20;;;3.00;;
15130;SDS011;7666;50.920;4.628;2023-07-16T02:10:51;8.10;;;3.27;;
15130;SDS011;7666;50.920;4.628;2023-07-16T02:13:37;9.57;;;2.87;;
15130;SDS011;7666;50.920;4.628;2023-07-16T02:16:24;10.07;;;2.93;;
15130;SDS011;7666;50.920;4.628;2023-07-16T02:19:10;14.37;;;3.23;;
15130;SDS011;7666;50.920;4.628;2023-07-16T02:21:57;13.27;;;3.60;;
15130;SDS011;7666;50.920;4.628;2023-07-16T02:24:43;8.67;;;3.03;;
15130;SDS011;7666;50.920;4.628;2023-07-16T02:27:30;12.33;;;3.57;;
15130;SDS011;7666;50.920;4.628;2023-07-16T02:30:17;8.73;;;3.33;;
15130;SDS011;7666;50.920;4.628;2023-07-16T02:33:03;11.17;;;4.37;;
15130;SDS011;7666;50.920;4.628;2023-07-16T02:35:50;11.90;;;3.70;;
15130;SDS011;7666;50.920;4.628;2023-07-16T02:38:39;15.50;;;3.87;;
15130;SDS011;7666;50.920;4.628;2023-07-16T02:41:25;11.43;;;4.40;;
15130;SDS011;7666;50.920;4.628;2023-07-16T02:44:11;12.37;;;3.93;;
15130;SDS011;7666;50.920;4.628;2023-07-16T02:46:58;10.13;;;4.20;;
15130;SDS011;7666;50.920;4.628;2023-07-16T02:49:44;11.07;;;4.73;;
15130;SDS011;7666;50.920;4.628;2023-07-16T02:52:31;11.23;;;4.63;;
15130;SDS011;7666;50.920;4.628;2023-07-16T02:55:17;11.27;;;4.60;;
15130;SDS011;7666;50.920;4.628;2023-07-16T02:58:03;8.37;;;4.73;;
15130;SDS011;7666;50.920;4.628;2023-07-16T03:00:50;10.07;;;4.90;;
15130;SDS011;7666;50.920;4.628;2023-07-16T03:03:36;10.07;;;4.73;;
15130;SDS011;7666;50.920;4.628;2023-07-16T03:06:23;10.27;;;5.07;;
15130;SDS011;7666;50.920;4.628;2023-07-16T03:09:09;10.40;;;5.17;;
15130;SDS011;7666;50.920;4.628;2023-07-16T03:11:56;12.90;;;4.87;;
15130;SDS011;7666;50.920;4.628;2023-07-16T03:14:42;11.40;;;4.90;;
15130;SDS011;7666;50.920;4.628;2023-07-16T03:17:29;12.30;;;4.90;;
15130;SDS011;7666;50.920;4.628;2023-07-16T03:20:15;14.57;;;5.10;;
15130;SDS011;7666;50.920;4.628;2023-07-16T03:23:02;9.47;;;4.60;;
15130;SDS011;7666;50.920;4.628;2023-07-16T03:25:48;9.83;;;4.60;;
15130;SDS011;7666;50.920;4.628;2023-07-16T03:28:34;11.23;;;4.70;;
15130;SDS011;7666;50.920;4.628;2023-07-16T03:31:21;10.03;;;4.67;;
15130;SDS011;7666;50.920;4.628;2023-07-16T03:34:07;14.03;;;5.00;;
15130;SDS011;7666;50.920;4.628;2023-07-16T03:36:53;9.10;;;4.57;;
15130;SDS011;7666;50.920;4.628;2023-07-16T03:39:40;10.50;;;5.07;;
15130;SDS011;7666;50.920;4.628;2023-07-16T03:42:26;11.97;;;5.10;;
15130;SDS011;7666;50.920;4.628;2023-07-16T03:45:13;11.57;;;4.57;;
15130;SDS011;7666;50.920;4.628;2023-07-16T03:48:00;9.57;;;5.37;;
15130;SDS011;7666;50.920;4.628;2023-07-16T03:50:46;12.60;;;4.57;;
15130;SDS011;7666;50.920;4.628;2023-07-16T03:53:32;7.97;;;4.87;;
15130;SDS011;7666;50.920;4.628;2023-07-16T03:56:19;8.50;;;5.03;;
15130;SDS011;7666;50.920;4.628;2023-07-16T03:59:05;9.77;;;5.20;;
15130;SDS011;7666;50.920;4.628;2023-07-16T04:01:51;9.33;;;4.80;;
15130;SDS011;7666;50.920;4.628;2023-07-16T04:04:38;9.67;;;4.80;;
15130;SDS011;7666;50.920;4.628;2023-07-16T04:07:24;11.77;;;4.73;;
15130;SDS011;7666;50.920;4.628;2023-07-16T04:10:11;8.67;;;4.50;;
15130;SDS011;7666;50.920;4.628;2023-07-16T04:12:57;16.27;;;5.87;;
15130;SDS011;7666;50.920;4.628;2023-07-16T04:15:43;10.77;;;4.90;;
15130;SDS011;7666;50.920;4.628;2023-07-16T04:18:30;14.77;;;5.67;;
15130;SDS011;7666;50.920;4.628;2023-07-16T04:21:16;15.20;;;5.30;;
15130;SDS011;7666;50.920;4.628;2023-07-16T04:24:03;11.70;;;6.10;;
15130;SDS011;7666;50.920;4.628;2023-07-16T04:26:49;10.63;;;5.23;;
15130;SDS011;7666;50.920;4.628;2023-07-16T04:29:35;11.20;;;5.37;;
15130;SDS011;7666;50.920;4.628;2023-07-16T04:32:22;13.73;;;6.30;;
15130;SDS011;7666;50.920;4.628;2023-07-16T04:35:08;12.63;;;5.63;;
15130;SDS011;7666;50.920;4.628;2023-07-16T04:37:55;8.63;;;5.10;;
15130;SDS011;7666;50.920;4.628;2023-07-16T04:40:43;13.30;;;5.40;;
15130;SDS011;7666;50.920;4.628;2023-07-16T04:43:29;12.73;;;5.77;;
15130;SDS011;7666;50.920;4.628;2023-07-16T04:46:15;15.00;;;6.00;;
15130;SDS011;7666;50.920;4.628;2023-07-16T04:49:02;13.00;;;5.97;;
15130;SDS011;7666;50.920;4.628;2023-07-16T04:51:49;9.77;;;5.27;;
15130;SDS011;7666;50.920;4.628;2023-07-16T04:54:36;15.13;;;5.87;;
15130;SDS011;7666;50.920;4.628;2023-07-16T04:57:22;11.87;;;5.57;;
15130;SDS011;7666;50.920;4.628;2023-07-16T05:00:09;10.13;;;5.50;;
15130;SDS011;7666;50.920;4.628;2023-07-16T05:02:55;10.23;;;5.70;;
15130;SDS011;7666;50.920;4.628;2023-07-16T05:05:42;11.43;;;5.63;;
15130;SDS011;7666;50.920;4.628;2023-07-16T05:08:28;13.10;;;5.87;;
15130;SDS011;7666;50.920;4.628;2023-07-16T05:11:14;11.53;;;5.90;;
15130;SDS011;7666;50.920;4.628;2023-07-16T05:14:01;9.60;;;5.10;;
15130;SDS011;7666;50.920;4.628;2023-07-16T05:16:47;11.37;;;5.73;;
15130;SDS011;7666;50.920;4.628;2023-07-16T05:19:34;10.07;;;5.13;;
15130;SDS011;7666;50.920;4.628;2023-07-16T05:22:20;9.80;;;5.27;;
15130;SDS011;7666;50.920;4.628;2023-07-16T05:25:07;12.23;;;5.40;;
15130;SDS011;7666;50.920;4.628;2023-07-16T05:27:53;10.90;;;5.77;;
15130;SDS011;7666;50.920;4.628;2023-07-16T05:30:39;11.30;;;5.67;;
15130;SDS011;7666;50.920;4.628;2023-07-16T05:33:26;9.50;;;5.10;;
15130;SDS011;7666;50.920;4.628;2023-07-16T05:36:12;10.27;;;5.33;;
15130;SDS011;7666;50.920;4.628;2023-07-16T05:38:59;11.40;;;5.33;;
15130;SDS011;7666;50.920;4.628;2023-07-16T05:41:45;8.03;;;4.93;;
15130;SDS011;7666;50.920;4.628;2023-07-16T05:44:31;10.07;;;5.20;;
15130;SDS011;7666;50.920;4.628;2023-07-16T05:47:18;9.47;;;4.87;;
15130;SDS011;7666;50.920;4.628;2023-07-16T05:50:04;10.63;;;4.77;;
15130;SDS011;7666;50.920;4.628;2023-07-16T05:52:51;9.87;;;5.50;;
15130;SDS011;7666;50.920;4.628;2023-07-16T05:55:39;10.57;;;5.30;;
15130;SDS011;7666;50.920;4.628;2023-07-16T05:58:25;10.90;;;5.43;;
15130;SDS011;7666;50.920;4.628;2023-07-16T06:01:11;10.60;;;5.67;;
15130;SDS011;7666;50.920;4.628;2023-07-16T06:03:58;10.73;;;5.73;;
15130;SDS011;7666;50.920;4.628;2023-07-16T06:06:44;9.57;;;5.33;;
15130;SDS011;7666;50.920;4.628;2023-07-16T06:09:31;11.90;;;5.27;;
15130;SDS011;7666;50.920;4.628;2023-07-16T06:12:17;10.43;;;5.60;;
15130;SDS011;7666;50.920;4.628;2023-07-16T06:15:04;9.13;;;5.50;;
15130;SDS011;7666;50.920;4.628;2023-07-16T06:17:50;10.77;;;5.63;;
15130;SDS011;7666;50.920;4.628;2023-07-16T06:20:37;15.63;;;5.70;;
15130;SDS011;7666;50.920;4.628;2023-07-16T06:23:23;8.47;;;5.47;;
15130;SDS011;7666;50.920;4.628;2023-07-16T06:26:10;8.30;;;5.10;;
15130;SDS011;7666;50.920;4.628;2023-07-16T06:28:56;12.77;;;5.70;;
15130;SDS011;7666;50.920;4.628;2023-07-16T06:31:43;9.07;;;5.47;;
15130;SDS011;7666;50.920;4.628;2023-07-16T06:34:29;10.80;;;5.23;;
15130;SDS011;7666;50.920;4.628;2023-07-16T06:37:16;12.90;;;6.20;;
15130;SDS011;7666;50.920;4.628;2023-07-16T06:40:02;11.23;;;5.70;;
15130;SDS011;7666;50.920;4.628;2023-07-16T06:42:49;11.50;;;5.87;;
15130;SDS011;7666;50.920;4.628;2023-07-16T06:45:35;14.30;;;5.70;;
15130;SDS011;7666;50.920;4.628;2023-07-16T06:48:22;13.63;;;5.67;;
15130;SDS011;7666;50.920;4.628;2023-07-16T06:51:08;10.30;;;5.97;;
15130;SDS011;7666;50.920;4.628;2023-07-16T06:53:55;9.87;;;5.83;;
15130;SDS011;7666;50.920;4.628;2023-07-16T06:56:41;9.80;;;5.50;;
15130;SDS011;7666;50.920;4.628;2023-07-16T06:59:28;11.53;;;6.40;;
15130;SDS011;7666;50.920;4.628;2023-07-16T07:02:15;11.57;;;5.77;;
15130;SDS011;7666;50.920;4.628;2023-07-16T07:05:02;10.40;;;5.70;;
15130;SDS011;7666;50.920;4.628;2023-07-16T07:07:49;11.87;;;5.83;;
15130;SDS011;7666;50.920;4.628;2023-07-16T07:10:35;8.97;;;5.57;;
15130;SDS011;7666;50.920;4.628;2023-07-16T07:13:24;8.23;;;5.87;;
15130;SDS011;7666;50.920;4.628;2023-07-16T07:16:10;10.50;;;5.53;;
15130;SDS011;7666;50.920;4.628;2023-07-16T07:18:56;10.30;;;5.23;;
15130;SDS011;7666;50.920;4.628;2023-07-16T07:21:43;12.53;;;6.17;;
15130;SDS011;7666;50.920;4.628;2023-07-16T07:24:29;9.47;;;5.43;;
15130;SDS011;7666;50.920;4.628;2023-07-16T07:27:16;10.13;;;5.57;;
15130;SDS011;7666;50.920;4.628;2023-07-16T07:30:02;9.40;;;5.97;;
15130;SDS011;7666;50.920;4.628;2023-07-16T07:32:49;11.90;;;5.83;;
15130;SDS011;7666;50.920;4.628;2023-07-16T07:35:35;9.60;;;5.67;;
15130;SDS011;7666;50.920;4.628;2023-07-16T07:38:22;10.33;;;5.80;;
15130;SDS011;7666;50.920;4.628;2023-07-16T07:41:08;12.80;;;6.40;;
15130;SDS011;7666;50.920;4.628;2023-07-16T07:43:54;9.80;;;5.67;;
15130;SDS011;7666;50.920;4.628;2023-07-16T07:46:41;11.30;;;5.87;;
15130;SDS011;7666;50.920;4.628;2023-07-16T07:49:27;11.23;;;5.90;;
15130;SDS011;7666;50.920;4.628;2023-07-16T07:52:14;11.20;;;5.53;;
15130;SDS011;7666;50.920;4.628;2023-07-16T07:55:00;12.87;;;5.57;;
15130;SDS011;7666;50.920;4.628;2023-07-16T07:57:46;11.03;;;6.33;;
15130;SDS011;7666;50.920;4.628;2023-07-16T08:00:33;10.70;;;5.73;;
15130;SDS011;7666;50.920;4.628;2023-07-16T08:03:19;8.67;;;5.63;;
15130;SDS011;7666;50.920;4.628;2023-07-16T08:06:06;9.53;;;5.50;;
15130;SDS011;7666;50.920;4.628;2023-07-16T08:08:52;8.80;;;5.57;;
15130;SDS011;7666;50.920;4.628;2023-07-16T08:11:38;12.80;;;6.70;;
15130;SDS011;7666;50.920;4.628;2023-07-16T08:14:25;15.37;;;6.00;;
15130;SDS011;7666;50.920;4.628;2023-07-16T08:17:11;11.17;;;5.73;;
15130;SDS011;7666;50.920;4.628;2023-07-16T08:19:58;11.00;;;6.03;;
15130;SDS011;7666;50.920;4.628;2023-07-16T08:22:44;11.17;;;6.07;;
15130;SDS011;7666;50.920;4.628;2023-07-16T08:25:30;10.97;;;5.67;;
15130;SDS011;7666;50.920;4.628;2023-07-16T08:28:17;9.53;;;5.70;;
15130;SDS011;7666;50.920;4.628;2023-07-16T08:31:03;11.43;;;5.37;;
15130;SDS011;7666;50.920;4.628;2023-07-16T08:33:50;12.73;;;5.23;;
15130;SDS011;7666;50.920;4.628;2023-07-16T08:36:36;9.70;;;5.20;;
15130;SDS011;7666;50.920;4.628;2023-07-16T08:39:23;9.03;;;5.40;;
15130;SDS011;7666;50.920;4.628;2023-07-16T08:42:10;9.83;;;5.37;;
15130;SDS011;7666;50.920;4.628;2023-07-16T08:44:56;6.63;;;5.10;;
15130;SDS011;7666;50.920;4.628;2023-07-16T08:47:42;10.83;;;5.20;;
15130;SDS011;7666;50.920;4.628;2023-07-16T08:50:29;9.40;;;5.40;;
15130;SDS011;7666;50.920;4.628;2023-07-16T08:53:16;7.90;;;4.90;;
15130;SDS011;7666;50.920;4.628;2023-07-16T08:56:02;8.60;;;5.30;;
15130;SDS011;7666;50.920;4.628;2023-07-16T08:58:50;8.27;;;4.97;;
15130;SDS011;7666;50.920;4.628;2023-07-16T09:01:41;9.33;;;5.40;;
15130;SDS011;7666;50.920;4.628;2023-07-16T09:04:28;8.80;;;4.33;;
15130;SDS011;7666;50.920;4.628;2023-07-16T09:07:15;7.63;;;4.47;;
15130;SDS011;7666;50.920;4.628;2023-07-16T09:10:01;8.93;;;4.90;;
15130;SDS011;7666;50.920;4.628;2023-07-16T09:12:48;8.77;;;4.80;;
15130;SDS011;7666;50.920;4.628;2023-07-16T09:15:34;7.13;;;4.70;;
15130;SDS011;7666;50.920;4.628;2023-07-16T09:18:22;7.77;;;4.63;;
15130;SDS011;7666;50.920;4.628;2023-07-16T09:21:08;8.90;;;5.27;;
15130;SDS011;7666;50.920;4.628;2023-07-16T09:23:55;10.80;;;5.33;;
15130;SDS011;7666;50.920;4.628;2023-07-16T09:26:52;7.93;;;4.97;;
15130;SDS011;7666;50.920;4.628;2023-07-16T09:29:40;8.90;;;4.60;;
15130;SDS011;7666;50.920;4.628;2023-07-16T09:32:33;9.17;;;5.10;;
15130;SDS011;7666;50.920;4.628;2023-07-16T09:35:20;9.60;;;5.20;;
15130;SDS011;7666;50.920;4.628;2023-07-16T09:38:07;10.27;;;4.83;;
15130;SDS011;7666;50.920;4.628;2023-07-16T09:40:55;9.23;;;5.00;;
15130;SDS011;7666;50.920;4.628;2023-07-16T09:43:42;7.57;;;4.87;;
15130;SDS011;7666;50.920;4.628;2023-07-16T09:46:30;9.33;;;4.97;;
15130;SDS011;7666;50.920;4.628;2023-07-16T09:49:16;8.37;;;4.80;;
15130;SDS011;7666;50.920;4.628;2023-07-16T09:52:02;8.23;;;4.87;;
15130;SDS011;7666;50.920;4.628;2023-07-16T09:54:49;8.17;;;4.87;;
15130;SDS011;7666;50.920;4.628;2023-07-16T09:57:38;8.57;;;5.00;;
15130;SDS011;7666;50.920;4.628;2023-07-16T10:00:25;10.67;;;4.50;;
15130;SDS011;7666;50.920;4.628;2023-07-16T10:03:11;9.80;;;5.00;;
15130;SDS011;7666;50.920;4.628;2023-07-16T10:06:07;10.27;;;4.70;;
15130;SDS011;7666;50.920;4.628;2023-07-16T10:08:54;8.27;;;4.33;;
15130;SDS011;7666;50.920;4.628;2023-07-16T10:11:40;9.27;;;4.70;;
15130;SDS011;7666;50.920;4.628;2023-07-16T10:14:27;8.17;;;4.67;;
15130;SDS011;7666;50.920;4.628;2023-07-16T10:17:14;9.70;;;4.50;;
15130;SDS011;7666;50.920;4.628;2023-07-16T10:22:50;8.63;;;4.73;;
15130;SDS011;7666;50.920;4.628;2023-07-16T10:25:36;11.43;;;5.00;;
15130;SDS011;7666;50.920;4.628;2023-07-16T10:28:23;9.10;;;5.10;;
15130;SDS011;7666;50.920;4.628;2023-07-16T10:31:21;7.77;;;4.80;;
15130;SDS011;7666;50.920;4.628;2023-07-16T10:34:08;11.83;;;4.97;;
15130;SDS011;7666;50.920;4.628;2023-07-16T10:36:55;8.83;;;4.70;;
15130;SDS011;7666;50.920;4.628;2023-07-16T10:39:48;10.43;;;5.00;;
15130;SDS011;7666;50.920;4.628;2023-07-16T10:42:34;8.87;;;4.97;;
15130;SDS011;7666;50.920;4.628;2023-07-16T10:45:21;10.00;;;4.80;;
15130;SDS011;7666;50.920;4.628;2023-07-16T10:48:07;8.67;;;4.70;;
15130;SDS011;7666;50.920;4.628;2023-07-16T10:50:54;7.90;;;4.60;;
15130;SDS011;7666;50.920;4.628;2023-07-16T10:53:41;7.83;;;4.40;;
15130;SDS011;7666;50.920;4.628;2023-07-16T10:56:27;7.20;;;4.43;;
15130;SDS011;7666;50.920;4.628;2023-07-16T10:59:14;7.90;;;4.33;;
15130;SDS011;7666;50.920;4.628;2023-07-16T11:02:01;7.00;;;4.07;;
15130;SDS011;7666;50.920;4.628;2023-07-16T11:04:48;8.87;;;4.67;;
15130;SDS011;7666;50.920;4.628;2023-07-16T11:07:34;9.40;;;4.53;;
15130;SDS011;7666;50.920;4.628;2023-07-16T11:10:21;9.00;;;4.67;;
15130;SDS011;7666;50.920;4.628;2023-07-16T11:13:07;7.37;;;4.63;;
15130;SDS011;7666;50.920;4.628;2023-07-16T11:15:54;9.47;;;4.50;;
15130;SDS011;7666;50.920;4.628;2023-07-16T11:18:41;7.67;;;4.00;;
15130;SDS011;7666;50.920;4.628;2023-07-16T11:21:29;8.93;;;4.43;;
15130;SDS011;7666;50.920;4.628;2023-07-16T11:24:15;9.40;;;4.67;;
15130;SDS011;7666;50.920;4.628;2023-07-16T11:27:02;8.30;;;4.27;;
15130;SDS011;7666;50.920;4.628;2023-07-16T11:29:49;6.87;;;4.00;;
15130;SDS011;7666;50.920;4.628;2023-07-16T11:35:22;9.67;;;4.53;;
15130;SDS011;7666;50.920;4.628;2023-07-16T11:38:08;7.50;;;4.23;;
15130;SDS011;7666;50.920;4.628;2023-07-16T11:40:55;9.63;;;4.63;;
15130;SDS011;7666;50.920;4.628;2023-07-16T11:43:41;8.97;;;4.37;;
15130;SDS011;7666;50.920;4.628;2023-07-16T11:46:31;7.17;;;4.10;;
15130;SDS011;7666;50.920;4.628;2023-07-16T11:49:18;7.33;;;4.10;;
15130;SDS011;7666;50.920;4.628;2023-07-16T11:52:05;7.50;;;4.00;;
15130;SDS011;7666;50.920;4.628;2023-07-16T11:54:51;8.93;;;4.43;;
15130;SDS011;7666;50.920;4.628;2023-07-16T11:57:38;7.73;;;4.70;;
15130;SDS011;7666;50.920;4.628;2023-07-16T12:00:24;7.53;;;4.33;;
15130;SDS011;7666;50.920;4.628;2023-07-16T12:03:11;6.57;;;4.03;;
15130;SDS011;7666;50.920;4.628;2023-07-16T12:05:57;7.90;;;4.30;;
15130;SDS011;7666;50.920;4.628;2023-07-16T12:08:44;5.87;;;4.20;;
15130;SDS011;7666;50.920;4.628;2023-07-16T12:11:30;6.97;;;4.07;;
15130;SDS011;7666;50.920;4.628;2023-07-16T12:14:16;8.50;;;4.80;;
15130;SDS011;7666;50.920;4.628;2023-07-16T12:17:03;6.57;;;4.67;;
15130;SDS011;7666;50.920;4.628;2023-07-16T12:19:49;7.17;;;3.93;;
15130;SDS011;7666;50.920;4.628;2023-07-16T12:22:36;6.67;;;4.63;;
15130;SDS011;7666;50.920;4.628;2023-07-16T12:25:22;8.03;;;4.10;;
15130;SDS011;7666;50.920;4.628;2023-07-16T12:28:09;8.50;;;3.77;;
15130;SDS011;7666;50.920;4.628;2023-07-16T12:30:55;6.07;;;3.83;;
15130;SDS011;7666;50.920;4.628;2023-07-16T12:33:42;9.10;;;4.30;;
15130;SDS011;7666;50.920;4.628;2023-07-16T12:36:28;6.63;;;3.70;;
15130;SDS011;7666;50.920;4.628;2023-07-16T12:39:15;8.77;;;4.23;;
15130;SDS011;7666;50.920;4.628;2023-07-16T12:42:01;6.60;;;3.80;;
15130;SDS011;7666;50.920;4.628;2023-07-16T12:44:48;5.63;;;3.73;;
15130;SDS011;7666;50.920;4.628;2023-07-16T12:47:36;6.00;;;3.43;;
15130;SDS011;7666;50.920;4.628;2023-07-16T12:50:24;6.43;;;3.60;;
15130;SDS011;7666;50.920;4.628;2023-07-16T12:53:13;6.07;;;4.00;;
15130;SDS011;7666;50.920;4.628;2023-07-16T12:55:59;6.30;;;3.80;;
15130;SDS011;7666;50.920;4.628;2023-07-16T12:58:47;9.47;;;3.97;;
15130;SDS011;7666;50.920;4.628;2023-07-16T13:01:33;11.40;;;4.10;;
15130;SDS011;7666;50.920;4.628;2023-07-16T13:04:20;7.80;;;4.00;;
15130;SDS011;7666;50.920;4.628;2023-07-16T13:07:06;6.40;;;3.97;;
15130;SDS011;7666;50.920;4.628;2023-07-16T13:09:53;7.70;;;3.70;;
15130;SDS011;7666;50.920;4.628;2023-07-16T13:12:40;8.23;;;3.67;;
15130;SDS011;7666;50.920;4.628;2023-07-16T13:15:26;5.43;;;3.40;;
15130;SDS011;7666;50.920;4.628;2023-07-16T13:18:13;8.17;;;3.73;;
15130;SDS011;7666;50.920;4.628;2023-07-16T13:20:59;7.97;;;3.40;;
15130;SDS011;7666;50.920;4.628;2023-07-16T13:23:45;7.77;;;3.40;;
15130;SDS011;7666;50.920;4.628;2023-07-16T13:26:32;6.30;;;3.23;;
15130;SDS011;7666;50.920;4.628;2023-07-16T13:29:18;5.67;;;3.60;;
15130;SDS011;7666;50.920;4.628;2023-07-16T13:32:05;5.30;;;3.13;;
15130;SDS011;7666;50.920;4.628;2023-07-16T13:34:51;5.17;;;3.20;;
15130;SDS011;7666;50.920;4.628;2023-07-16T13:37:38;5.40;;;2.63;;
15130;SDS011;7666;50.920;4.628;2023-07-16T13:40:24;7.20;;;3.60;;
15130;SDS011;7666;50.920;4.628;2023-07-16T13:43:10;5.90;;;3.17;;
15130;SDS011;7666;50.920;4.628;2023-07-16T13:45:57;4.60;;;3.07;;
15130;SDS011;7666;50.920;4.628;2023-07-16T13:48:43;4.93;;;2.80;;
15130;SDS011;7666;50.920;4.628;2023-07-16T13:51:30;5.53;;;3.17;;
15130;SDS011;7666;50.920;4.628;2023-07-16T13:54:16;6.37;;;2.90;;
15130;SDS011;7666;50.920;4.628;2023-07-16T13:57:03;5.53;;;3.23;;
15130;SDS011;7666;50.920;4.628;2023-07-16T13:59:49;5.33;;;3.03;;
15130;SDS011;7666;50.920;4.628;2023-07-16T14:02:36;5.83;;;2.90;;
15130;SDS011;7666;50.920;4.628;2023-07-16T14:05:22;5.17;;;3.03;;
15130;SDS011;7666;50.920;4.628;2023-07-16T14:08:09;5.30;;;3.00;;
15130;SDS011;7666;50.920;4.628;2023-07-16T14:10:55;6.27;;;3.00;;
15130;SDS011;7666;50.920;4.628;2023-07-16T14:13:41;4.70;;;3.00;;
15130;SDS011;7666;50.920;4.628;2023-07-16T14:16:28;5.67;;;2.90;;
15130;SDS011;7666;50.920;4.628;2023-07-16T14:19:14;7.90;;;2.60;;
15130;SDS011;7666;50.920;4.628;2023-07-16T14:22:01;5.17;;;2.60;;
15130;SDS011;7666;50.920;4.628;2023-07-16T14:24:47;4.20;;;2.43;;
15130;SDS011;7666;50.920;4.628;2023-07-16T14:27:36;5.53;;;2.70;;
15130;SDS011;7666;50.920;4.628;2023-07-16T14:30:22;3.67;;;2.37;;
15130;SDS011;7666;50.920;4.628;2023-07-16T14:33:09;6.33;;;2.97;;
15130;SDS011;7666;50.920;4.628;2023-07-16T14:35:55;6.03;;;3.07;;
15130;SDS011;7666;50.920;4.628;2023-07-16T14:38:42;4.10;;;2.60;;
15130;SDS011;7666;50.920;4.628;2023-07-16T14:41:28;3.83;;;2.23;;
15130;SDS011;7666;50.920;4.628;2023-07-16T14:44:14;4.30;;;2.50;;
15130;SDS011;7666;50.920;4.628;2023-07-16T14:47:01;5.43;;;2.73;;
15130;SDS011;7666;50.920;4.628;2023-07-16T14:49:49;4.87;;;3.00;;
15130;SDS011;7666;50.920;4.628;2023-07-16T14:52:35;5.50;;;3.30;;
15130;SDS011;7666;50.920;4.628;2023-07-16T14:55:22;4.13;;;2.63;;
15130;SDS011;7666;50.920;4.628;2023-07-16T14:58:08;7.10;;;3.10;;
15130;SDS011;7666;50.920;4.628;2023-07-16T15:00:55;5.43;;;3.30;;
15130;SDS011;7666;50.920;4.628;2023-07-16T15:03:41;7.17;;;3.07;;
15130;SDS011;7666;50.920;4.628;2023-07-16T15:06:28;10.63;;;4.47;;
15130;SDS011;7666;50.920;4.628;2023-07-16T15:09:14;6.07;;;3.40;;
15130;SDS011;7666;50.920;4.628;2023-07-16T15:12:01;6.73;;;3.27;;
15130;SDS011;7666;50.920;4.628;2023-07-16T15:14:47;5.37;;;3.20;;
15130;SDS011;7666;50.920;4.628;2023-07-16T15:17:34;6.37;;;3.27;;
15130;SDS011;7666;50.920;4.628;2023-07-16T15:20:20;5.93;;;3.03;;
15130;SDS011;7666;50.920;4.628;2023-07-16T15:23:09;5.80;;;3.13;;
15130;SDS011;7666;50.920;4.628;2023-07-16T15:25:59;6.23;;;3.17;;
15130;SDS011;7666;50.920;4.628;2023-07-16T15:28:46;6.53;;;3.07;;
15130;SDS011;7666;50.920;4.628;2023-07-16T15:31:32;6.27;;;3.13;;
15130;SDS011;7666;50.920;4.628;2023-07-16T15:34:19;4.93;;;3.00;;
15130;SDS011;7666;50.920;4.628;2023-07-16T15:37:05;3.73;;;2.30;;
15130;SDS011;7666;50.920;4.628;2023-07-16T15:39:54;3.93;;;2.17;;
15130;SDS011;7666;50.920;4.628;2023-07-16T15:42:41;4.97;;;2.50;;
15130;SDS011;7666;50.920;4.628;2023-07-16T15:45:27;6.43;;;2.40;;
15130;SDS011;7666;50.920;4.628;2023-07-16T15:48:14;6.10;;;2.67;;
15130;SDS011;7666;50.920;4.628;2023-07-16T15:51:00;3.77;;;2.80;;
15130;SDS011;7666;50.920;4.628;2023-07-16T15:53:48;9.17;;;2.97;;
15130;SDS011;7666;50.920;4.628;2023-07-16T15:56:37;4.10;;;2.40;;
15130;SDS011;7666;50.920;4.628;2023-07-16T15:59:24;4.83;;;2.53;;
15130;SDS011;7666;50.920;4.628;2023-07-16T16:02:10;4.73;;;2.73;;
15130;SDS011;7666;50.920;4.628;2023-07-16T16:04:57;4.33;;;2.80;;
15130;SDS011;7666;50.920;4.628;2023-07-16T16:07:44;4.90;;;2.90;;
15130;SDS011;7666;50.920;4.628;2023-07-16T16:10:30;4.57;;;2.80;;
15130;SDS011;7666;50.920;4.628;2023-07-16T16:13:20;3.53;;;2.87;;
15130;SDS011;7666;50.920;4.628;2023-07-16T16:16:07;3.90;;;2.37;;
15130;SDS011;7666;50.920;4.628;2023-07-16T16:18:53;6.50;;;3.27;;
15130;SDS011;7666;50.920;4.628;2023-07-16T16:21:40;4.47;;;3.10;;
15130;SDS011;7666;50.920;4.628;2023-07-16T16:24:26;5.63;;;2.60;;
15130;SDS011;7666;50.920;4.628;2023-07-16T16:27:12;4.90;;;2.70;;
15130;SDS011;7666;50.920;4.628;2023-07-16T16:30:01;4.80;;;3.10;;
15130;SDS011;7666;50.920;4.628;2023-07-16T16:32:48;6.37;;;3.03;;
15130;SDS011;7666;50.920;4.628;2023-07-16T16:35:39;7.33;;;3.57;;
15130;SDS011;7666;50.920;4.628;2023-07-16T16:38:27;4.10;;;2.87;;
15130;SDS011;7666;50.920;4.628;2023-07-16T16:41:13;5.07;;;3.00;;
15130;SDS011;7666;50.920;4.628;2023-07-16T16:43:59;5.87;;;3.00;;
15130;SDS011;7666;50.920;4.628;2023-07-16T16:46:46;9.07;;;5.27;;
15130;SDS011;7666;50.920;4.628;2023-07-16T16:49:32;6.00;;;3.33;;
15130;SDS011;7666;50.920;4.628;2023-07-16T16:52:20;6.30;;;3.40;;
15130;SDS011;7666;50.920;4.628;2023-07-16T16:55:06;6.17;;;3.43;;
15130;SDS011;7666;50.920;4.628;2023-07-16T16:57:53;4.30;;;3.10;;
15130;SDS011;7666;50.920;4.628;2023-07-16T17:00:39;4.67;;;3.10;;
15130;SDS011;7666;50.920;4.628;2023-07-16T17:03:26;5.63;;;3.00;;
15130;SDS011;7666;50.920;4.628;2023-07-16T17:06:12;4.17;;;2.73;;
15130;SDS011;7666;50.920;4.628;2023-07-16T17:08:59;4.50;;;2.70;;